sensor_id;sensor_type;location;lat;lon;timestamp;pressure;altitude;pressure_sealevel;temperature;humidity
51083;BME280;37131;42.694;23.350;2023-03-20T00:01:04;95841.44;;;4.31;83.94
51083;BME280;37131;42.694;23.350;2023-03-20T00:03:33;95837.91;;;4.47;82.03
51083;BME280;37131;42.694;23.350;2023-03-20T00:05:59;95836.78;;;4.50;82.63
51083;BME280;37131;42.694;23.350;2023-03-20T00:08:24;95827.38;;;4.57;82.39
51083;BME280;37131;42.694;23.350;2023-03-20T00:10:49;95820.94;;;4.53;82.34
51083;BME280;37131;42.694;23.350;2023-03-20T00:13:20;95828.50;;;4.54;82.28
51083;BME280;37131;42.694;23.350;2023-03-20T00:15:48;95833.97;;;4.36;82.64
51083;BME280;37131;42.694;23.350;2023-03-20T00:18:15;95833.69;;;4.31;83.75
51083;BME280;37131;42.694;23.350;2023-03-20T00:20:42;95833.16;;;4.36;84.04
51083;BME280;37131;42.694;23.350;2023-03-20T00:23:08;95826.28;;;4.51;83.88
51083;BME280;37131;42.694;23.350;2023-03-20T00:25:33;95826.91;;;4.77;83.01
51083;BME280;37131;42.694;23.350;2023-03-20T00:27:58;95824.72;;;5.26;80.60
51083;BME280;37131;42.694;23.350;2023-03-20T00:30:29;95826.75;;;5.16;78.78
51083;BME280;37131;42.694;23.350;2023-03-20T00:32:56;95822.84;;;5.20;78.87
51083;BME280;37131;42.694;23.350;2023-03-20T00:35:23;95815.28;;;5.63;75.27
51083;BME280;37131;42.694;23.350;2023-03-20T00:37:49;95821.72;;;5.53;75.27
51083;BME280;37131;42.694;23.350;2023-03-20T00:40:15;95817.59;;;5.29;76.13
51083;BME280;37131;42.694;23.350;2023-03-20T00:42:42;95817.53;;;4.99;78.64
51083;BME280;37131;42.694;23.350;2023-03-20T00:45:14;95813.06;;;4.92;78.69
51083;BME280;37131;42.694;23.350;2023-03-20T00:47:41;95813.94;;;4.85;79.31
51083;BME280;37131;42.694;23.350;2023-03-20T00:50:27;95820.13;;;4.99;78.45
51083;BME280;37131;42.694;23.350;2023-03-20T00:52:57;95813.59;;;4.65;80.13
51083;BME280;37131;42.694;23.350;2023-03-20T00:55:25;95814.22;;;4.44;82.22
51083;BME280;37131;42.694;23.350;2023-03-20T00:57:56;95815.69;;;4.46;82.22
51083;BME280;37131;42.694;23.350;2023-03-20T01:00:35;95812.44;;;4.44;82.50
51083;BME280;37131;42.694;23.350;2023-03-20T01:03:21;95815.59;;;4.31;83.28
51083;BME280;37131;42.694;23.350;2023-03-20T01:05:48;95797.81;;;4.36;83.46
51083;BME280;37131;42.694;23.350;2023-03-20T01:08:24;95790.59;;;4.32;82.99
51083;BME280;37131;42.694;23.350;2023-03-20T01:10:52;95800.28;;;4.30;83.22
51083;BME280;37131;42.694;23.350;2023-03-20T01:13:24;95804.63;;;4.29;83.52
51083;BME280;37131;42.694;23.350;2023-03-20T01:15:51;95797.06;;;4.28;82.82
51083;BME280;37131;42.694;23.350;2023-03-20T01:18:19;95786.38;;;4.31;82.40
51083;BME280;37131;42.694;23.350;2023-03-20T01:20:46;95792.13;;;4.18;84.17
51083;BME280;37131;42.694;23.350;2023-03-20T01:23:12;95788.69;;;4.26;83.24
51083;BME280;37131;42.694;23.350;2023-03-20T01:25:38;95785.34;;;4.17;83.72
51083;BME280;37131;42.694;23.350;2023-03-20T01:28:16;95792.75;;;4.20;83.77
51083;BME280;37131;42.694;23.350;2023-03-20T01:30:43;95795.88;;;4.07;84.19
51083;BME280;37131;42.694;23.350;2023-03-20T01:33:20;95794.59;;;4.03;84.44
51083;BME280;37131;42.694;23.350;2023-03-20T01:35:48;95800.75;;;4.02;83.63
51083;BME280;37131;42.694;23.350;2023-03-20T01:38:23;95791.28;;;3.94;84.06
51083;BME280;37131;42.694;23.350;2023-03-20T01:43:17;95799.69;;;3.88;85.96
51083;BME280;37131;42.694;23.350;2023-03-20T01:45:53;95798.91;;;3.79;85.88
51083;BME280;37131;42.694;23.350;2023-03-20T01:48:22;95805.94;;;3.94;84.92
51083;BME280;37131;42.694;23.350;2023-03-20T01:50:49;95809.72;;;3.83;86.22
51083;BME280;37131;42.694;23.350;2023-03-20T01:53:20;95806.97;;;3.84;85.56
51083;BME280;37131;42.694;23.350;2023-03-20T01:55:49;95804.06;;;3.79;85.23
51083;BME280;37131;42.694;23.350;2023-03-20T01:58:20;95808.78;;;3.67;86.82
51083;BME280;37131;42.694;23.350;2023-03-20T02:00:46;95810.72;;;3.74;86.07
51083;BME280;37131;42.694;23.350;2023-03-20T02:03:14;95809.34;;;3.94;85.03
51083;BME280;37131;42.694;23.350;2023-03-20T02:05:41;95810.25;;;4.01;83.54
51083;BME280;37131;42.694;23.350;2023-03-20T02:08:27;95803.03;;;3.97;84.67
51083;BME280;37131;42.694;23.350;2023-03-20T02:10:53;95801.09;;;3.99;84.01
51083;BME280;37131;42.694;23.350;2023-03-20T02:13:20;95797.78;;;3.82;84.61
51083;BME280;37131;42.694;23.350;2023-03-20T02:16:04;95806.97;;;3.84;85.25
51083;BME280;37131;42.694;23.350;2023-03-20T02:18:30;95800.66;;;3.87;85.33
51083;BME280;37131;42.694;23.350;2023-03-20T02:26:37;95804.19;;;3.94;84.57
51083;BME280;37131;42.694;23.350;2023-03-20T02:29:42;95815.88;;;3.74;85.29
51083;BME280;37131;42.694;23.350;2023-03-20T02:40:41;95810.06;;;3.72;86.37
51083;BME280;37131;42.694;23.350;2023-03-20T02:46:10;95798.53;;;3.59;86.79
51083;BME280;37131;42.694;23.350;2023-03-20T02:48:52;95787.09;;;3.54;87.51
51083;BME280;37131;42.694;23.350;2023-03-20T02:54:24;95795.94;;;3.51;86.66
51083;BME280;37131;42.694;23.350;2023-03-20T02:57:17;95764.84;;;3.53;86.67
51083;BME280;37131;42.694;23.350;2023-03-20T03:02:50;95779.91;;;3.32;86.18
51083;BME280;37131;42.694;23.350;2023-03-20T03:05:23;95797.56;;;3.60;85.60
51083;BME280;37131;42.694;23.350;2023-03-20T03:07:55;95789.59;;;3.78;84.84
51083;BME280;37131;42.694;23.350;2023-03-20T03:10:28;95798.53;;;3.59;84.79
51083;BME280;37131;42.694;23.350;2023-03-20T03:12:55;95777.75;;;3.53;84.08
51083;BME280;37131;42.694;23.350;2023-03-20T03:15:28;95798.19;;;3.54;84.65
51083;BME280;37131;42.694;23.350;2023-03-20T03:17:56;95800.44;;;3.57;84.66
51083;BME280;37131;42.694;23.350;2023-03-20T03:20:27;95792.44;;;3.44;86.29
51083;BME280;37131;42.694;23.350;2023-03-20T03:22:53;95787.59;;;3.49;85.98
51083;BME280;37131;42.694;23.350;2023-03-20T03:25:22;95782.94;;;3.36;86.52
51083;BME280;37131;42.694;23.350;2023-03-20T03:27:55;95800.16;;;3.52;86.26
51083;BME280;37131;42.694;23.350;2023-03-20T03:30:26;95794.72;;;3.39;85.92
51083;BME280;37131;42.694;23.350;2023-03-20T03:33:16;95798.06;;;3.39;86.85
51083;BME280;37131;42.694;23.350;2023-03-20T03:35:45;95788.44;;;3.33;87.53
51083;BME280;37131;42.694;23.350;2023-03-20T03:38:37;95801.66;;;3.38;86.81
51083;BME280;37131;42.694;23.350;2023-03-20T03:41:39;95796.78;;;3.43;87.11
51083;BME280;37131;42.694;23.350;2023-03-20T03:49:13;95794.88;;;3.29;86.90
51083;BME280;37131;42.694;23.350;2023-03-20T03:51:42;95786.53;;;3.19;88.32
51083;BME280;37131;42.694;23.350;2023-03-20T03:54:12;95792.25;;;3.45;87.04
51083;BME280;37131;42.694;23.350;2023-03-20T03:56:42;95784.94;;;3.18;86.78
51083;BME280;37131;42.694;23.350;2023-03-20T03:59:37;95794.09;;;3.37;85.91
51083;BME280;37131;42.694;23.350;2023-03-20T04:02:03;95779.63;;;3.19;86.93
51083;BME280;37131;42.694;23.350;2023-03-20T04:04:31;95786.06;;;3.15;87.89
51083;BME280;37131;42.694;23.350;2023-03-20T04:06:58;95776.59;;;3.55;85.93
51083;BME280;37131;42.694;23.350;2023-03-20T04:09:23;95782.03;;;3.12;85.38
51083;BME280;37131;42.694;23.350;2023-03-20T04:11:50;95790.00;;;3.42;84.92
51083;BME280;37131;42.694;23.350;2023-03-20T04:14:16;95785.41;;;3.21;84.92
51083;BME280;37131;42.694;23.350;2023-03-20T04:16:42;95788.31;;;3.10;84.89
51083;BME280;37131;42.694;23.350;2023-03-20T04:19:07;95772.22;;;2.99;84.81
51083;BME280;37131;42.694;23.350;2023-03-20T04:21:32;95779.97;;;3.08;86.48
51083;BME280;37131;42.694;23.350;2023-03-20T04:23:58;95775.72;;;3.31;84.40
51083;BME280;37131;42.694;23.350;2023-03-20T04:26:23;95779.13;;;3.15;85.30
51083;BME280;37131;42.694;23.350;2023-03-20T04:28:49;95768.19;;;3.13;85.45
51083;BME280;37131;42.694;23.350;2023-03-20T04:31:15;95770.22;;;3.34;84.55
51083;BME280;37131;42.694;23.350;2023-03-20T04:33:42;95780.19;;;3.38;83.80
51083;BME280;37131;42.694;23.350;2023-03-20T04:36:09;95784.28;;;3.15;84.76
51083;BME280;37131;42.694;23.350;2023-03-20T04:38:34;95776.91;;;2.96;85.76
51083;BME280;37131;42.694;23.350;2023-03-20T04:41:00;95789.78;;;2.71;87.55
51083;BME280;37131;42.694;23.350;2023-03-20T04:43:25;95791.09;;;2.75;87.28
51083;BME280;37131;42.694;23.350;2023-03-20T04:45:51;95798.50;;;2.62;87.40
51083;BME280;37131;42.694;23.350;2023-03-20T04:48:16;95798.97;;;2.57;88.74
51083;BME280;37131;42.694;23.350;2023-03-20T04:50:41;95803.19;;;2.75;86.52
51083;BME280;37131;42.694;23.350;2023-03-20T04:53:10;95796.25;;;2.84;85.68
51083;BME280;37131;42.694;23.350;2023-03-20T04:55:36;95802.31;;;3.15;84.56
51083;BME280;37131;42.694;23.350;2023-03-20T04:58:01;95809.75;;;3.02;84.63
51083;BME280;37131;42.694;23.350;2023-03-20T05:00:27;95810.56;;;2.78;86.70
51083;BME280;37131;42.694;23.350;2023-03-20T05:02:52;95813.47;;;2.83;87.60
51083;BME280;37131;42.694;23.350;2023-03-20T05:05:17;95812.97;;;2.88;87.46
51083;BME280;37131;42.694;23.350;2023-03-20T05:07:43;95809.47;;;2.80;88.43
51083;BME280;37131;42.694;23.350;2023-03-20T05:10:09;95816.53;;;2.78;89.04
51083;BME280;37131;42.694;23.350;2023-03-20T05:12:35;95823.44;;;2.86;88.24
51083;BME280;37131;42.694;23.350;2023-03-20T05:15:00;95815.41;;;3.06;87.29
51083;BME280;37131;42.694;23.350;2023-03-20T05:17:25;95823.13;;;3.06;87.31
51083;BME280;37131;42.694;23.350;2023-03-20T05:19:51;95812.34;;;2.94;87.45
51083;BME280;37131;42.694;23.350;2023-03-20T05:22:17;95828.09;;;3.15;86.00
51083;BME280;37131;42.694;23.350;2023-03-20T05:24:43;95816.31;;;3.21;85.38
51083;BME280;37131;42.694;23.350;2023-03-20T05:27:08;95816.97;;;3.23;84.56
51083;BME280;37131;42.694;23.350;2023-03-20T05:29:34;95824.38;;;3.18;85.53
51083;BME280;37131;42.694;23.350;2023-03-20T05:32:00;95829.81;;;3.48;85.08
51083;BME280;37131;42.694;23.350;2023-03-20T05:34:25;95822.78;;;3.81;83.14
51083;BME280;37131;42.694;23.350;2023-03-20T05:36:51;95820.66;;;3.85;82.35
51083;BME280;37131;42.694;23.350;2023-03-20T05:39:17;95823.94;;;4.10;80.67
51083;BME280;37131;42.694;23.350;2023-03-20T05:41:42;95827.69;;;4.31;79.82
51083;BME280;37131;42.694;23.350;2023-03-20T05:44:08;95824.72;;;4.42;79.28
51083;BME280;37131;42.694;23.350;2023-03-20T05:46:33;95824.94;;;4.32;78.68
51083;BME280;37131;42.694;23.350;2023-03-20T05:48:58;95831.31;;;4.13;79.43
51083;BME280;37131;42.694;23.350;2023-03-20T05:51:23;95832.69;;;4.32;78.34
51083;BME280;37131;42.694;23.350;2023-03-20T05:53:49;95830.84;;;4.18;77.40
51083;BME280;37131;42.694;23.350;2023-03-20T05:56:14;95831.09;;;4.31;78.39
51083;BME280;37131;42.694;23.350;2023-03-20T05:58:39;95829.91;;;4.42;79.26
51083;BME280;37131;42.694;23.350;2023-03-20T06:01:04;95833.34;;;4.81;77.53
51083;BME280;37131;42.694;23.350;2023-03-20T06:03:30;95830.00;;;4.72;76.79
51083;BME280;37131;42.694;23.350;2023-03-20T06:05:55;95824.53;;;4.52;77.64
51083;BME280;37131;42.694;23.350;2023-03-20T06:08:21;95827.78;;;4.92;77.34
51083;BME280;37131;42.694;23.350;2023-03-20T06:10:48;95825.38;;;4.67;76.49
51083;BME280;37131;42.694;23.350;2023-03-20T06:13:14;95826.47;;;4.96;76.30
51083;BME280;37131;42.694;23.350;2023-03-20T06:15:39;95825.81;;;5.32;75.21
51083;BME280;37131;42.694;23.350;2023-03-20T06:18:04;95829.16;;;4.56;76.14
51083;BME280;37131;42.694;23.350;2023-03-20T06:20:30;95829.63;;;4.83;76.02
51083;BME280;37131;42.694;23.350;2023-03-20T06:22:55;95830.81;;;4.96;75.38
51083;BME280;37131;42.694;23.350;2023-03-20T06:25:20;95827.94;;;5.29;75.32
51083;BME280;37131;42.694;23.350;2023-03-20T06:27:46;95824.66;;;5.35;73.35
51083;BME280;37131;42.694;23.350;2023-03-20T06:30:12;95827.56;;;5.17;73.67
51083;BME280;37131;42.694;23.350;2023-03-20T06:32:37;95832.72;;;4.79;74.22
51083;BME280;37131;42.694;23.350;2023-03-20T06:35:03;95823.53;;;4.76;75.62
51083;BME280;37131;42.694;23.350;2023-03-20T06:37:30;95827.88;;;4.99;75.46
51083;BME280;37131;42.694;23.350;2023-03-20T06:39:55;95827.72;;;4.54;75.88
51083;BME280;37131;42.694;23.350;2023-03-20T06:42:20;95831.72;;;5.03;75.98
51083;BME280;37131;42.694;23.350;2023-03-20T06:44:46;95832.59;;;5.33;75.34
51083;BME280;37131;42.694;23.350;2023-03-20T06:47:11;95835.44;;;5.68;74.11
51083;BME280;37131;42.694;23.350;2023-03-20T06:49:37;95828.66;;;5.37;72.80
51083;BME280;37131;42.694;23.350;2023-03-20T06:52:02;95821.34;;;5.26;73.77
51083;BME280;37131;42.694;23.350;2023-03-20T06:54:28;95821.00;;;5.44;74.49
51083;BME280;37131;42.694;23.350;2023-03-20T06:56:53;95803.69;;;6.04;72.12
51083;BME280;37131;42.694;23.350;2023-03-20T06:59:18;95811.09;;;6.65;69.57
51083;BME280;37131;42.694;23.350;2023-03-20T07:01:44;95806.84;;;6.79;68.71
51083;BME280;37131;42.694;23.350;2023-03-20T07:04:09;95809.59;;;7.28;65.01
51083;BME280;37131;42.694;23.350;2023-03-20T07:06:35;95806.53;;;7.17;65.10
51083;BME280;37131;42.694;23.350;2023-03-20T07:09:00;95798.47;;;7.69;64.66
51083;BME280;37131;42.694;23.350;2023-03-20T07:11:26;95791.63;;;8.03;61.98
51083;BME280;37131;42.694;23.350;2023-03-20T07:13:51;95793.31;;;8.24;61.67
51083;BME280;37131;42.694;23.350;2023-03-20T07:16:17;95802.06;;;8.10;62.82
51083;BME280;37131;42.694;23.350;2023-03-20T07:18:42;95795.97;;;8.44;61.84
51083;BME280;37131;42.694;23.350;2023-03-20T07:21:07;95797.84;;;7.32;63.58
51083;BME280;37131;42.694;23.350;2023-03-20T07:23:33;95796.56;;;7.49;65.08
51083;BME280;37131;42.694;23.350;2023-03-20T07:25:58;95791.97;;;7.45;65.29
51083;BME280;37131;42.694;23.350;2023-03-20T07:28:24;95793.84;;;7.58;65.12
51083;BME280;37131;42.694;23.350;2023-03-20T07:30:49;95791.38;;;7.91;63.91
51083;BME280;37131;42.694;23.350;2023-03-20T07:33:14;95793.31;;;8.31;62.45
51083;BME280;37131;42.694;23.350;2023-03-20T07:35:42;95788.59;;;8.54;61.25
51083;BME280;37131;42.694;23.350;2023-03-20T07:38:07;95794.34;;;8.36;62.10
51083;BME280;37131;42.694;23.350;2023-03-20T07:40:32;95796.81;;;8.45;61.00
51083;BME280;37131;42.694;23.350;2023-03-20T07:42:57;95798.75;;;8.42;60.85
51083;BME280;37131;42.694;23.350;2023-03-20T07:45:23;95790.06;;;8.90;58.77
51083;BME280;37131;42.694;23.350;2023-03-20T07:47:48;95787.44;;;8.97;59.03
51083;BME280;37131;42.694;23.350;2023-03-20T07:50:14;95784.78;;;9.57;56.20
51083;BME280;37131;42.694;23.350;2023-03-20T07:52:40;95795.41;;;9.36;56.89
51083;BME280;37131;42.694;23.350;2023-03-20T07:55:05;95794.56;;;9.62;55.02
51083;BME280;37131;42.694;23.350;2023-03-20T07:57:31;95790.22;;;9.42;55.76
51083;BME280;37131;42.694;23.350;2023-03-20T07:59:57;95785.25;;;9.99;54.09
51083;BME280;37131;42.694;23.350;2023-03-20T08:02:22;95786.88;;;9.87;53.39
51083;BME280;37131;42.694;23.350;2023-03-20T08:04:47;95778.38;;;10.12;53.44
51083;BME280;37131;42.694;23.350;2023-03-20T08:07:12;95783.34;;;10.20;52.98
51083;BME280;37131;42.694;23.350;2023-03-20T08:09:38;95783.34;;;10.20;51.94
51083;BME280;37131;42.694;23.350;2023-03-20T08:12:03;95779.09;;;10.26;53.48
51083;BME280;37131;42.694;23.350;2023-03-20T08:14:29;95785.00;;;10.53;52.21
51083;BME280;37131;42.694;23.350;2023-03-20T08:16:54;95778.25;;;10.45;52.34
51083;BME280;37131;42.694;23.350;2023-03-20T08:19:20;95778.97;;;10.14;53.51
51083;BME280;37131;42.694;23.350;2023-03-20T08:21:45;95780.81;;;10.52;53.07
51083;BME280;37131;42.694;23.350;2023-03-20T08:24:10;95783.59;;;10.57;53.41
51083;BME280;37131;42.694;23.350;2023-03-20T08:26:36;95780.00;;;10.13;53.34
51083;BME280;37131;42.694;23.350;2023-03-20T08:29:01;95785.75;;;9.70;54.57
51083;BME280;37131;42.694;23.350;2023-03-20T08:31:26;95779.09;;;10.32;53.18
51083;BME280;37131;42.694;23.350;2023-03-20T08:33:51;95788.91;;;9.78;55.31
51083;BME280;37131;42.694;23.350;2023-03-20T08:36:17;95786.50;;;10.35;54.60
51083;BME280;37131;42.694;23.350;2023-03-20T08:38:44;95785.25;;;10.77;53.44
51083;BME280;37131;42.694;23.350;2023-03-20T08:41:10;95780.09;;;10.95;51.80
51083;BME280;37131;42.694;23.350;2023-03-20T08:43:35;95778.56;;;11.13;51.28
51083;BME280;37131;42.694;23.350;2023-03-20T08:46:01;95776.56;;;11.33;50.73
51083;BME280;37131;42.694;23.350;2023-03-20T08:48:26;95775.47;;;10.97;51.84
51083;BME280;37131;42.694;23.350;2023-03-20T08:50:51;95773.94;;;11.33;50.90
51083;BME280;37131;42.694;23.350;2023-03-20T08:53:16;95778.34;;;10.89;51.83
51083;BME280;37131;42.694;23.350;2023-03-20T08:55:48;95774.84;;;11.46;50.73
51083;BME280;37131;42.694;23.350;2023-03-20T08:58:14;95773.97;;;11.52;50.06
51083;BME280;37131;42.694;23.350;2023-03-20T09:00:39;95767.41;;;12.05;47.17
51083;BME280;37131;42.694;23.350;2023-03-20T09:03:06;95767.03;;;11.83;47.64
51083;BME280;37131;42.694;23.350;2023-03-20T09:05:31;95765.06;;;11.78;48.64
51083;BME280;37131;42.694;23.350;2023-03-20T09:07:56;95756.84;;;12.42;47.20
51083;BME280;37131;42.694;23.350;2023-03-20T09:10:21;95752.47;;;11.87;47.86
51083;BME280;37131;42.694;23.350;2023-03-20T09:12:47;95748.78;;;12.13;47.01
51083;BME280;37131;42.694;23.350;2023-03-20T09:15:12;95748.97;;;11.81;47.99
51083;BME280;37131;42.694;23.350;2023-03-20T09:17:37;95746.03;;;11.52;48.57
51083;BME280;37131;42.694;23.350;2023-03-20T09:20:03;95745.69;;;11.67;47.68
51083;BME280;37131;42.694;23.350;2023-03-20T09:22:29;95749.47;;;11.71;48.64
51083;BME280;37131;42.694;23.350;2023-03-20T09:24:54;95742.94;;;11.99;47.76
51083;BME280;37131;42.694;23.350;2023-03-20T09:27:20;95737.53;;;12.55;45.97
51083;BME280;37131;42.694;23.350;2023-03-20T09:29:45;95732.81;;;12.87;45.00
51083;BME280;37131;42.694;23.350;2023-03-20T09:32:11;95728.81;;;12.61;45.74
51083;BME280;37131;42.694;23.350;2023-03-20T09:34:36;95718.47;;;12.66;46.21
51083;BME280;37131;42.694;23.350;2023-03-20T09:37:02;95721.81;;;13.09;44.61
51083;BME280;37131;42.694;23.350;2023-03-20T09:39:28;95715.44;;;13.40;44.22
51083;BME280;37131;42.694;23.350;2023-03-20T09:41:53;95704.06;;;13.46;44.01
51083;BME280;37131;42.694;23.350;2023-03-20T09:44:41;95700.97;;;13.49;44.45
51083;BME280;37131;42.694;23.350;2023-03-20T09:52:56;95687.06;;;13.90;43.25
51083;BME280;37131;42.694;23.350;2023-03-20T09:55:26;95668.91;;;14.63;44.44
51083;BME280;37131;42.694;23.350;2023-03-20T09:57:57;95664.91;;;15.11;41.11
51083;BME280;37131;42.694;23.350;2023-03-20T10:00:27;95658.47;;;14.85;41.16
51083;BME280;37131;42.694;23.350;2023-03-20T10:03:06;95654.59;;;15.26;42.15
51083;BME280;37131;42.694;23.350;2023-03-20T10:06:21;95650.78;;;15.17;40.72
51083;BME280;37131;42.694;23.350;2023-03-20T10:08:35;95643.13;;;14.94;41.36
51083;BME280;37131;42.694;23.350;2023-03-20T10:18:28;95634.03;;;15.01;41.37
51083;BME280;37131;42.694;23.350;2023-03-20T10:25:53;95615.59;;;15.85;40.44
51083;BME280;37131;42.694;23.350;2023-03-20T10:29:04;95614.19;;;15.77;39.01
51083;BME280;37131;42.694;23.350;2023-03-20T10:33:59;95610.63;;;16.53;37.23
51083;BME280;37131;42.694;23.350;2023-03-20T10:39:36;95604.50;;;16.80;37.12
51083;BME280;37131;42.694;23.350;2023-03-20T10:41:41;95594.44;;;17.14;36.01
51083;BME280;37131;42.694;23.350;2023-03-20T10:44:09;95578.72;;;17.40;35.75
51083;BME280;37131;42.694;23.350;2023-03-20T10:46:42;95588.63;;;17.07;35.04
51083;BME280;37131;42.694;23.350;2023-03-20T10:51:41;95573.09;;;18.10;34.02
51083;BME280;37131;42.694;23.350;2023-03-20T10:54:52;95566.69;;;17.80;33.63
51083;BME280;37131;42.694;23.350;2023-03-20T10:56:59;95564.38;;;18.15;33.69
51083;BME280;37131;42.694;23.350;2023-03-20T10:59:28;95564.84;;;17.81;33.82
51083;BME280;37131;42.694;23.350;2023-03-20T11:01:56;95561.75;;;18.15;34.02
51083;BME280;37131;42.694;23.350;2023-03-20T11:04:22;95560.91;;;18.35;33.01
51083;BME280;37131;42.694;23.350;2023-03-20T11:09:23;95550.59;;;18.64;32.78
51083;BME280;37131;42.694;23.350;2023-03-20T11:11:51;95559.00;;;17.68;33.92
51083;BME280;37131;42.694;23.350;2023-03-20T11:14:18;95550.91;;;18.21;33.52
51083;BME280;37131;42.694;23.350;2023-03-20T11:16:53;95540.03;;;18.59;33.43
51083;BME280;37131;42.694;23.350;2023-03-20T11:19:20;95537.88;;;18.92;32.09
51083;BME280;37131;42.694;23.350;2023-03-20T11:21:50;95532.09;;;18.64;31.55
51083;BME280;37131;42.694;23.350;2023-03-20T11:24:26;95523.56;;;19.03;32.24
51083;BME280;37131;42.694;23.350;2023-03-20T11:27:03;95518.25;;;19.58;30.19
51083;BME280;37131;42.694;23.350;2023-03-20T11:29:29;95511.56;;;19.66;30.99
51083;BME280;37131;42.694;23.350;2023-03-20T11:32:44;95511.16;;;19.49;30.72
51083;BME280;37131;42.694;23.350;2023-03-20T11:34:47;95504.38;;;19.32;30.17
51083;BME280;37131;42.694;23.350;2023-03-20T11:37:23;95502.22;;;18.84;30.97
51083;BME280;37131;42.694;23.350;2023-03-20T11:39:56;95505.41;;;18.71;30.79
51083;BME280;37131;42.694;23.350;2023-03-20T11:42:24;95501.69;;;19.42;32.85
51083;BME280;37131;42.694;23.350;2023-03-20T11:45:00;95483.53;;;19.70;30.94
51083;BME280;37131;42.694;23.350;2023-03-20T11:47:26;95480.75;;;19.91;29.55
51083;BME280;37131;42.694;23.350;2023-03-20T11:49:57;95474.34;;;19.18;29.98
51083;BME280;37131;42.694;23.350;2023-03-20T11:52:30;95468.91;;;19.83;30.71
51083;BME280;37131;42.694;23.350;2023-03-20T11:54:56;95469.41;;;19.85;29.44
51083;BME280;37131;42.694;23.350;2023-03-20T11:57:30;95455.41;;;19.85;30.64
51083;BME280;37131;42.694;23.350;2023-03-20T11:59:56;95456.41;;;20.18;29.73
51083;BME280;37131;42.694;23.350;2023-03-20T12:02:22;95444.94;;;20.52;27.91
51083;BME280;37131;42.694;23.350;2023-03-20T12:04:49;95441.19;;;20.58;25.95
51083;BME280;37131;42.694;23.350;2023-03-20T12:07:22;95438.75;;;21.24;25.89
51083;BME280;37131;42.694;23.350;2023-03-20T12:09:50;95430.59;;;21.59;27.76
51083;BME280;37131;42.694;23.350;2023-03-20T12:17:39;95413.22;;;23.10;25.05
51083;BME280;37131;42.694;23.350;2023-03-20T12:20:15;95416.22;;;22.81;22.94
51083;BME280;37131;42.694;23.350;2023-03-20T12:22:48;95415.09;;;23.78;21.79
51083;BME280;37131;42.694;23.350;2023-03-20T12:25:25;95407.38;;;23.68;21.91
51083;BME280;37131;42.694;23.350;2023-03-20T12:28:01;95410.38;;;23.97;20.70
51083;BME280;37131;42.694;23.350;2023-03-20T12:35:27;95399.06;;;24.63;19.73
51083;BME280;37131;42.694;23.350;2023-03-20T12:37:53;95402.63;;;24.50;20.28
51083;BME280;37131;42.694;23.350;2023-03-20T12:40:18;95391.09;;;24.72;20.54
51083;BME280;37131;42.694;23.350;2023-03-20T12:43:10;95399.56;;;24.83;19.51
51083;BME280;37131;42.694;23.350;2023-03-20T12:45:39;95396.19;;;24.51;18.93
51083;BME280;37131;42.694;23.350;2023-03-20T12:48:15;95384.16;;;24.13;19.80
51083;BME280;37131;42.694;23.350;2023-03-20T12:50:46;95378.56;;;24.90;18.60
51083;BME280;37131;42.694;23.350;2023-03-20T12:53:20;95373.03;;;26.30;19.36
51083;BME280;37131;42.694;23.350;2023-03-20T13:01:11;95354.44;;;27.36;17.33
51083;BME280;37131;42.694;23.350;2023-03-20T13:06:21;95352.53;;;27.70;17.62
51083;BME280;37131;42.694;23.350;2023-03-20T13:29:34;95329.97;;;27.04;16.59
51083;BME280;37131;42.694;23.350;2023-03-20T13:32:16;95316.56;;;27.25;18.40
51083;BME280;37131;42.694;23.350;2023-03-20T13:37:27;95324.28;;;25.95;17.50
51083;BME280;37131;42.694;23.350;2023-03-20T13:43:07;95319.06;;;25.98;19.25
51083;BME280;37131;42.694;23.350;2023-03-20T13:45:38;95310.63;;;24.96;18.69
51083;BME280;37131;42.694;23.350;2023-03-20T13:48:28;95311.25;;;25.19;19.16
51083;BME280;37131;42.694;23.350;2023-03-20T13:50:52;95302.50;;;24.84;18.62
51083;BME280;37131;42.694;23.350;2023-03-20T13:53:43;95303.22;;;24.49;20.01
51083;BME280;37131;42.694;23.350;2023-03-20T13:56:33;95304.59;;;24.29;19.20
51083;BME280;37131;42.694;23.350;2023-03-20T14:01:30;95303.47;;;24.13;18.44
51083;BME280;37131;42.694;23.350;2023-03-20T14:03:57;95296.16;;;24.36;19.30
51083;BME280;37131;42.694;23.350;2023-03-20T14:08:52;95296.56;;;23.40;19.26
51083;BME280;37131;42.694;23.350;2023-03-20T14:13:46;95279.53;;;23.50;18.50
51083;BME280;37131;42.694;23.350;2023-03-20T14:16:13;95279.16;;;23.65;19.69
51083;BME280;37131;42.694;23.350;2023-03-20T14:18:39;95284.22;;;23.44;20.62
51083;BME280;37131;42.694;23.350;2023-03-20T14:21:12;95285.47;;;23.47;19.29
51083;BME280;37131;42.694;23.350;2023-03-20T14:28:51;95271.19;;;23.43;18.98
51083;BME280;37131;42.694;23.350;2023-03-20T14:31:27;95266.25;;;23.59;18.75
51083;BME280;37131;42.694;23.350;2023-03-20T14:34:42;95266.75;;;23.29;18.84
51083;BME280;37131;42.694;23.350;2023-03-20T14:51:49;95263.97;;;22.53;20.40
51083;BME280;37131;42.694;23.350;2023-03-20T14:56:46;95260.03;;;22.00;22.02
51083;BME280;37131;42.694;23.350;2023-03-20T14:59:13;95258.53;;;21.94;20.76
51083;BME280;37131;42.694;23.350;2023-03-20T15:04:07;95251.38;;;21.80;21.30
51083;BME280;37131;42.694;23.350;2023-03-20T15:06:34;95258.06;;;21.64;21.33
51083;BME280;37131;42.694;23.350;2023-03-20T15:09:07;95257.34;;;21.58;20.92
51083;BME280;37131;42.694;23.350;2023-03-20T15:11:34;95261.16;;;21.38;20.83
51083;BME280;37131;42.694;23.350;2023-03-20T15:14:00;95261.56;;;21.45;21.79
51083;BME280;37131;42.694;23.350;2023-03-20T15:16:27;95262.41;;;21.41;20.65
51083;BME280;37131;42.694;23.350;2023-03-20T15:18:53;95263.41;;;21.31;20.29
51083;BME280;37131;42.694;23.350;2023-03-20T15:21:19;95259.44;;;21.28;21.78